createdAt,value
2019-05-09T00:00:04.100Z,98944.00
2019-05-09T00:02:39.384Z,98942.00
2019-05-09T00:05:10.688Z,98950.00
2019-05-09T00:07:41.290Z,98947.00
2019-05-09T00:10:14.195Z,98947.00
2019-05-09T00:12:44.917Z,98945.00
2019-05-09T00:15:16.035Z,98949.00
2019-05-09T00:17:46.507Z,98958.00
2019-05-09T00:20:36.795Z,98958.00
2019-05-09T00:23:07.939Z,98960.00
2019-05-09T00:25:38.755Z,98957.00
2019-05-09T00:28:09.330Z,98950.00
2019-05-09T00:30:57.849Z,98953.00
2019-05-09T00:33:30.158Z,98950.00
2019-05-09T00:36:00.660Z,98954.00
2019-05-09T00:38:55.759Z,98952.00
2019-05-09T00:41:26.512Z,98948.00
2019-05-09T00:44:09.464Z,98952.00
2019-05-09T00:46:48.050Z,98962.00
2019-05-09T00:49:23.577Z,98954.00
2019-05-09T00:51:54.406Z,98954.00
2019-05-09T00:54:25.176Z,98956.00
2019-05-09T00:56:55.956Z,98966.00
2019-05-09T00:59:26.608Z,98954.00
2019-05-09T01:01:57.305Z,98960.00
2019-05-09T01:04:27.770Z,98965.00
2019-05-09T01:06:59.965Z,98956.00
2019-05-09T01:09:30.666Z,98960.00
2019-05-09T01:12:03.818Z,98963.00
2019-05-09T01:14:34.072Z,98965.00
2019-05-09T01:17:04.620Z,98968.00
2019-05-09T01:19:35.138Z,98965.00
2019-05-09T01:22:05.932Z,98966.00
2019-05-09T01:24:36.813Z,98970.00
2019-05-09T01:27:07.577Z,98976.00
2019-05-09T01:29:38.455Z,98973.00
2019-05-09T01:32:17.402Z,98973.00
2019-05-09T01:34:48.267Z,98988.00
2019-05-09T01:37:19.273Z,98990.00
2019-05-09T01:39:49.779Z,98982.00
2019-05-09T01:42:20.561Z,98985.00
2019-05-09T01:44:53.217Z,98975.00
2019-05-09T01:47:24.103Z,98986.00
2019-05-09T01:49:55.417Z,98984.00
2019-05-09T01:52:26.067Z,98985.00
2019-05-09T01:54:57.358Z,98988.00
2019-05-09T01:57:28.032Z,98980.00
2019-05-09T01:59:58.755Z,98992.00
2019-05-09T02:02:29.622Z,98984.00
2019-05-09T02:05:03.980Z,98983.00
2019-05-09T02:07:33.972Z,98981.00
2019-05-09T02:10:05.359Z,98986.00
2019-05-09T02:12:36.156Z,98982.00
2019-05-09T02:15:15.288Z,98984.00
2019-05-09T02:18:07.234Z,98981.00
2019-05-09T02:20:38.132Z,98976.00
2019-05-09T02:23:08.736Z,98971.00
2019-05-09T02:25:39.271Z,98968.00
2019-05-09T02:28:10.036Z,98971.00
2019-05-09T02:30:40.533Z,98970.00
2019-05-09T02:33:14.432Z,98975.00
2019-05-09T02:35:52.881Z,98962.00
2019-05-09T02:38:15.731Z,98968.00
2019-05-09T02:40:48.662Z,98967.00
2019-05-09T02:43:18.880Z,98968.00
2019-05-09T02:45:59.498Z,98959.00
2019-05-09T02:48:30.434Z,98962.00
2019-05-09T02:51:01.202Z,98968.00
2019-05-09T02:53:31.999Z,98967.00
2019-05-09T02:56:03.056Z,98981.00
2019-05-09T02:58:40.097Z,98978.00
2019-05-09T03:01:32.635Z,98974.00
2019-05-09T03:04:03.004Z,98973.00
2019-05-09T03:06:33.504Z,98980.00
2019-05-09T03:09:04.692Z,98991.00
2019-05-09T03:11:38.534Z,98989.00
2019-05-09T03:14:09.130Z,98996.00
2019-05-09T03:16:40.188Z,98990.00
2019-05-09T03:19:10.872Z,99004.00
2019-05-09T03:21:49.905Z,98999.00
2019-05-09T03:24:20.238Z,99002.00
2019-05-09T03:26:59.251Z,98998.00
2019-05-09T03:29:48.925Z,99007.00
2019-05-09T03:32:19.767Z,99014.00
2019-05-09T03:34:50.315Z,99013.00
2019-05-09T03:37:20.580Z,99003.00
2019-05-09T03:39:50.860Z,99018.00
2019-05-09T03:42:25.973Z,99010.00
2019-05-09T03:44:53.196Z,99001.00
2019-05-09T03:47:48.106Z,99007.00
2019-05-09T03:50:18.655Z,99009.00
2019-05-09T03:52:49.021Z,99008.00
2019-05-09T03:55:28.046Z,99002.00
2019-05-09T03:58:11.691Z,99014.00
2019-05-09T04:00:42.259Z,99015.00
2019-05-09T04:03:12.743Z,99019.00
2019-05-09T04:05:55.592Z,99016.00
2019-05-09T04:08:18.741Z,99020.00
2019-05-09T04:10:53.673Z,99025.00
2019-05-09T04:13:32.239Z,99034.00
2019-05-09T04:16:03.195Z,99040.00
2019-05-09T04:18:34.059Z,99043.00
2019-05-09T04:21:04.822Z,99043.00
2019-05-09T04:23:38.206Z,99029.00
2019-05-09T04:26:25.165Z,99039.00
2019-05-09T04:28:57.659Z,99043.00
2019-05-09T04:31:28.217Z,99047.00
2019-05-09T04:33:59.408Z,99039.00
2019-05-09T04:36:42.202Z,99041.00
2019-05-09T04:39:18.974Z,99042.00
2019-05-09T04:41:48.761Z,99050.00
2019-05-09T04:44:28.561Z,99049.00
2019-05-09T04:47:03.408Z,99059.00
2019-05-09T04:49:39.519Z,99042.00
2019-05-09T04:52:04.838Z,99044.00
2019-05-09T04:54:38.254Z,99044.00
2019-05-09T04:57:08.674Z,99051.00
2019-05-09T04:59:39.567Z,99051.00
2019-05-09T05:02:38.313Z,99052.00
2019-05-09T05:05:12.892Z,99052.00
2019-05-09T05:07:44.087Z,99059.00
2019-05-09T05:10:15.242Z,99058.00
2019-05-09T05:12:48.333Z,99044.00
2019-05-09T05:15:20.482Z,99054.00
2019-05-09T05:17:51.830Z,99049.00
2019-05-09T05:20:27.638Z,99053.00
2019-05-09T05:23:08.212Z,99057.00
2019-05-09T05:25:39.713Z,99057.00
2019-05-09T05:28:10.740Z,99061.00
2019-05-09T05:30:41.318Z,99058.00
2019-05-09T05:33:30.018Z,99073.00
2019-05-09T05:36:02.962Z,99062.00
2019-05-09T05:38:33.569Z,99064.00
2019-05-09T05:41:04.554Z,99076.00
2019-05-09T05:43:41.628Z,99070.00
2019-05-09T05:46:28.596Z,99079.00
2019-05-09T05:48:59.129Z,99081.00
2019-05-09T05:51:32.562Z,99076.00
2019-05-09T05:54:03.398Z,99080.00
2019-05-09T05:56:34.271Z,99081.00
2019-05-09T05:59:05.086Z,99087.00
2019-05-09T06:01:38.061Z,99084.00
2019-05-09T06:04:08.358Z,99098.00
2019-05-09T06:06:39.332Z,99090.00
2019-05-09T06:09:10.219Z,99098.00
2019-05-09T06:11:40.876Z,99086.00
2019-05-09T06:14:12.054Z,99087.00
2019-05-09T06:16:43.397Z,99098.00
2019-05-09T06:19:14.319Z,99096.00
2019-05-09T06:21:45.132Z,99097.00
2019-05-09T06:24:17.713Z,99103.00
2019-05-09T06:26:48.485Z,99090.00
2019-05-09T06:29:18.911Z,99093.00
2019-05-09T06:31:49.735Z,99098.00
2019-05-09T06:34:20.656Z,99093.00
2019-05-09T06:36:51.805Z,99095.00
2019-05-09T06:39:23.554Z,99104.00
2019-05-09T06:41:54.663Z,99106.00
2019-05-09T06:44:32.520Z,99099.00
2019-05-09T06:47:13.764Z,99106.00
2019-05-09T06:49:49.848Z,99109.00
2019-05-09T06:52:19.755Z,99114.00
2019-05-09T06:54:54.408Z,99112.00
2019-05-09T06:57:27.878Z,99118.00
2019-05-09T06:59:58.065Z,99124.00
2019-05-09T07:02:38.891Z,99119.00
2019-05-09T07:05:18.832Z,99120.00
2019-05-09T07:08:20.154Z,99121.00
2019-05-09T07:10:50.830Z,99123.00
2019-05-09T07:13:21.945Z,99122.00
2019-05-09T07:15:53.077Z,99118.00
2019-05-09T07:18:23.697Z,99116.00
2019-05-09T07:20:57.522Z,99127.00
2019-05-09T07:23:28.239Z,99123.00
2019-05-09T07:26:17.675Z,99116.00
2019-05-09T07:28:49.796Z,99120.00
2019-05-09T07:31:33.855Z,99124.00
2019-05-09T07:34:08.684Z,99135.00
2019-05-09T07:36:39.719Z,99119.00
2019-05-09T07:39:10.783Z,99130.00
2019-05-09T07:41:41.549Z,99118.00
2019-05-09T07:44:14.799Z,99118.00
2019-05-09T07:46:58.132Z,99118.00
2019-05-09T07:49:30.698Z,99119.00
2019-05-09T07:52:06.658Z,99124.00
2019-05-09T07:54:33.906Z,99124.00
2019-05-09T07:57:04.713Z,99131.00
2019-05-09T07:59:35.535Z,99121.00
2019-05-09T08:02:08.654Z,99122.00
2019-05-09T08:04:39.097Z,99120.00
2019-05-09T08:07:10.049Z,99124.00
2019-05-09T08:09:41.148Z,99139.00
2019-05-09T08:12:12.026Z,99130.00
2019-05-09T08:14:43.169Z,99145.00
2019-05-09T08:17:13.771Z,99132.00
2019-05-09T08:19:44.749Z,99132.00
2019-05-09T08:22:24.631Z,99142.00
2019-05-09T08:24:48.398Z,99142.00
2019-05-09T08:27:19.660Z,99147.00
2019-05-09T08:29:50.576Z,99164.00
2019-05-09T08:32:21.271Z,99152.00
2019-05-09T08:34:52.136Z,99135.00
2019-05-09T08:37:22.944Z,99145.00
2019-05-09T08:39:53.695Z,99146.00
2019-05-09T08:42:24.777Z,99144.00
2019-05-09T08:44:57.801Z,99140.00
2019-05-09T08:47:28.205Z,99144.00
2019-05-09T08:50:08.951Z,99134.00
2019-05-09T08:52:39.855Z,99143.00
2019-05-09T08:55:10.969Z,99137.00
2019-05-09T08:57:41.755Z,99126.00
2019-05-09T09:00:13.861Z,99135.00
2019-05-09T09:02:44.769Z,99127.00
2019-05-09T09:05:18.442Z,99140.00
2019-05-09T09:07:49.093Z,99127.00
2019-05-09T09:10:20.455Z,99130.00
2019-05-09T09:12:51.343Z,99123.00
2019-05-09T09:15:46.707Z,99135.00
2019-05-09T09:17:57.958Z,99128.00
2019-05-09T09:20:29.028Z,99125.00
2019-05-09T09:23:00.110Z,99123.00
2019-05-09T09:25:30.765Z,99116.00
2019-05-09T09:28:01.446Z,99114.00
2019-05-09T09:30:32.074Z,99118.00
2019-05-09T09:33:02.834Z,99128.00
2019-05-09T09:35:33.824Z,99128.00
2019-05-09T09:38:04.743Z,99135.00
2019-05-09T09:40:35.366Z,99117.00
2019-05-09T09:43:08.690Z,99122.00
2019-05-09T09:45:38.358Z,99131.00
2019-05-09T09:48:09.395Z,99116.00
2019-05-09T09:50:40.680Z,99134.00
2019-05-09T09:53:12.425Z,99129.00
2019-05-09T09:55:43.110Z,99121.00
2019-05-09T09:58:13.790Z,99118.00
2019-05-09T10:01:03.952Z,99115.00
2019-05-09T10:03:36.073Z,99116.00
2019-05-09T10:06:06.738Z,99118.00
2019-05-09T10:08:39.575Z,99136.00
2019-05-09T10:11:09.839Z,99112.00
2019-05-09T10:13:40.901Z,99136.00
2019-05-09T10:16:32.955Z,99124.00
2019-05-09T10:19:14.779Z,99128.00
2019-05-09T10:21:48.897Z,99129.00
2019-05-09T10:24:19.625Z,99127.00
2019-05-09T10:27:10.118Z,99130.00
2019-05-09T10:29:40.891Z,99137.00
2019-05-09T10:32:18.178Z,99141.00
2019-05-09T10:34:49.560Z,99130.00
2019-05-09T10:37:20.289Z,99129.00
2019-05-09T10:39:50.913Z,99129.00
2019-05-09T10:42:31.282Z,99134.00
2019-05-09T10:45:23.908Z,99126.00
2019-05-09T10:47:54.642Z,99130.00
2019-05-09T10:50:25.422Z,99119.00
2019-05-09T10:52:58.193Z,99119.00
2019-05-09T10:55:28.439Z,99123.00
2019-05-09T10:58:02.301Z,99120.00
2019-05-09T11:00:32.108Z,99115.00
2019-05-09T11:03:02.968Z,99124.00
2019-05-09T11:05:33.645Z,99123.00
2019-05-09T11:08:04.298Z,99130.00
2019-05-09T11:10:34.976Z,99126.00
2019-05-09T11:13:07.569Z,99131.00
2019-05-09T11:15:38.451Z,99128.00
2019-05-09T11:18:09.329Z,99122.00
2019-05-09T11:20:40.459Z,99132.00
2019-05-09T11:23:11.549Z,99133.00
2019-05-09T11:25:42.288Z,99116.00
2019-05-09T11:28:15.117Z,99124.00
2019-05-09T11:30:47.702Z,99128.00
2019-05-09T11:33:18.463Z,99139.00
2019-05-09T11:35:51.949Z,99136.00
2019-05-09T11:38:33.212Z,99131.00
2019-05-09T11:40:53.774Z,99133.00
2019-05-09T11:43:24.715Z,99133.00
2019-05-09T11:45:55.399Z,99129.00
2019-05-09T11:48:28.233Z,99130.00
2019-05-09T11:50:58.879Z,99133.00
2019-05-09T11:53:30.064Z,99130.00
2019-05-09T11:56:00.806Z,99137.00
2019-05-09T11:58:31.535Z,99136.00
2019-05-09T12:01:03.248Z,99132.00
2019-05-09T12:03:34.640Z,99133.00
2019-05-09T12:06:07.817Z,99137.00
2019-05-09T12:08:38.746Z,99136.00
2019-05-09T12:11:09.909Z,99128.00
2019-05-09T12:13:40.898Z,99127.00
2019-05-09T12:16:12.284Z,99128.00
2019-05-09T12:18:43.309Z,99127.00
2019-05-09T12:21:18.667Z,99120.00
2019-05-09T12:23:49.129Z,99119.00
2019-05-09T12:26:20.905Z,99123.00
2019-05-09T12:28:51.915Z,99121.00
2019-05-09T12:31:23.520Z,99123.00
2019-05-09T12:33:54.765Z,99133.00
2019-05-09T12:36:30.525Z,99138.00
2019-05-09T12:39:01.632Z,99127.00
2019-05-09T12:41:32.482Z,99120.00
2019-05-09T12:44:03.679Z,99125.00
2019-05-09T12:46:34.747Z,99122.00
2019-05-09T12:49:05.529Z,99131.00
2019-05-09T12:51:37.655Z,99129.00
2019-05-09T12:54:08.780Z,99130.00
2019-05-09T12:56:39.509Z,99134.00
2019-05-09T12:59:10.329Z,99139.00
2019-05-09T13:01:41.622Z,99130.00
2019-05-09T13:04:12.384Z,99141.00
2019-05-09T13:06:43.065Z,99132.00
2019-05-09T13:09:13.524Z,99133.00
2019-05-09T13:11:44.212Z,99134.00
2019-05-09T13:14:14.997Z,99137.00
2019-05-09T13:17:00.517Z,99134.00
2019-05-09T13:19:38.419Z,99123.00
2019-05-09T13:22:09.120Z,99124.00
2019-05-09T13:24:39.742Z,99129.00
2019-05-09T13:27:10.442Z,99127.00
2019-05-09T13:29:41.006Z,99127.00
2019-05-09T13:32:11.497Z,99116.00
2019-05-09T13:34:42.160Z,99125.00
2019-05-09T13:37:13.336Z,99137.00
2019-05-09T13:39:44.036Z,99130.00
2019-05-09T13:42:14.587Z,99124.00
2019-05-09T13:44:47.435Z,99122.00
2019-05-09T13:47:18.030Z,99120.00
2019-05-09T13:49:48.577Z,99127.00
2019-05-09T13:52:19.599Z,99121.00
2019-05-09T13:54:50.290Z,99126.00
2019-05-09T13:57:21.013Z,99117.00
2019-05-09T13:59:51.603Z,99119.00
2019-05-09T14:02:22.163Z,99127.00
2019-05-09T14:04:54.649Z,99121.00
2019-05-09T14:07:27.859Z,99127.00
2019-05-09T14:09:58.518Z,99133.00
2019-05-09T14:12:29.380Z,99144.00
2019-05-09T14:15:00.125Z,99139.00
2019-05-09T14:17:44.751Z,99133.00
2019-05-09T14:20:03.393Z,99135.00
2019-05-09T14:22:34.209Z,99135.00
2019-05-09T14:25:07.277Z,99136.00
2019-05-09T14:27:37.733Z,99139.00
2019-05-09T14:30:08.373Z,99132.00
2019-05-09T14:32:40.172Z,99139.00
2019-05-09T14:35:11.066Z,99139.00
2019-05-09T14:37:44.328Z,99144.00
2019-05-09T14:40:17.431Z,99140.00
2019-05-09T14:42:49.483Z,99131.00
2019-05-09T14:45:23.017Z,99127.00
2019-05-09T14:47:53.804Z,99132.00
2019-05-09T14:50:25.044Z,99129.00
2019-05-09T14:52:58.265Z,99138.00
2019-05-09T14:55:28.671Z,99142.00
2019-05-09T14:57:59.358Z,99148.00
2019-05-09T15:00:30.186Z,99149.00
2019-05-09T15:03:00.832Z,99146.00
2019-05-09T15:05:31.507Z,99141.00
2019-05-09T15:08:02.374Z,99136.00
2019-05-09T15:10:33.559Z,99155.00
2019-05-09T15:13:04.231Z,99146.00
2019-05-09T15:15:35.231Z,99148.00
2019-05-09T15:18:08.113Z,99148.00
2019-05-09T15:20:38.285Z,99147.00
2019-05-09T15:23:09.127Z,99148.00
2019-05-09T15:25:39.651Z,99151.00
2019-05-09T15:28:10.243Z,99156.00
2019-05-09T15:30:40.923Z,99151.00
2019-05-09T15:33:11.618Z,99162.00
2019-05-09T15:35:44.286Z,99159.00
2019-05-09T15:38:15.005Z,99166.00
2019-05-09T15:40:48.085Z,99170.00
2019-05-09T15:43:21.198Z,99172.00
2019-05-09T15:46:04.365Z,99180.00
2019-05-09T15:48:35.062Z,99185.00
2019-05-09T15:51:07.536Z,99183.00
2019-05-09T15:53:38.231Z,99179.00
2019-05-09T15:56:08.878Z,99188.00
2019-05-09T15:58:39.914Z,99185.00
2019-05-09T16:01:10.568Z,99194.00
2019-05-09T16:03:41.090Z,99183.00
2019-05-09T16:06:12.122Z,99183.00
2019-05-09T16:08:43.780Z,99198.00
2019-05-09T16:11:17.815Z,99197.00
2019-05-09T16:13:52.599Z,99189.00
2019-05-09T16:16:24.469Z,99195.00
2019-05-09T16:18:58.284Z,99191.00
2019-05-09T16:21:30.923Z,99193.00
2019-05-09T16:24:01.907Z,99192.00
2019-05-09T16:26:32.669Z,99184.00
2019-05-09T16:29:03.777Z,99194.00
2019-05-09T16:31:35.014Z,99190.00
2019-05-09T16:34:09.434Z,99201.00
2019-05-09T16:36:39.499Z,99202.00
2019-05-09T16:39:10.639Z,99201.00
2019-05-09T16:41:41.957Z,99201.00
2019-05-09T16:44:13.085Z,99199.00
2019-05-09T16:46:44.025Z,99200.00
2019-05-09T16:49:17.534Z,99202.00
2019-05-09T16:51:50.165Z,99210.00
2019-05-09T16:54:22.681Z,99211.00
2019-05-09T16:56:53.651Z,99204.00
2019-05-09T16:59:24.727Z,99198.00
2019-05-09T17:01:57.713Z,99199.00
2019-05-09T17:04:28.032Z,99204.00
2019-05-09T17:06:58.625Z,99208.00
2019-05-09T17:09:29.409Z,99207.00
2019-05-09T17:12:00.030Z,99218.00
2019-05-09T17:14:30.862Z,99216.00
2019-05-09T17:17:01.432Z,99214.00
2019-05-09T17:19:32.026Z,99213.00
2019-05-09T17:22:16.134Z,99219.00
2019-05-09T17:24:48.506Z,99215.00
2019-05-09T17:27:21.596Z,99221.00
2019-05-09T17:29:52.248Z,99230.00
2019-05-09T17:32:22.987Z,99227.00
2019-05-09T17:34:53.545Z,99233.00
2019-05-09T17:37:24.101Z,99228.00
2019-05-09T17:39:54.780Z,99228.00
2019-05-09T17:42:27.611Z,99231.00
2019-05-09T17:44:58.288Z,99227.00
2019-05-09T17:47:29.025Z,99232.00
2019-05-09T17:49:59.833Z,99229.00
2019-05-09T17:52:30.655Z,99230.00
2019-05-09T17:55:01.463Z,99238.00
2019-05-09T17:57:32.309Z,99233.00
2019-05-09T18:00:03.064Z,99235.00
2019-05-09T18:02:34.457Z,99246.00
2019-05-09T18:05:05.038Z,99245.00
2019-05-09T18:07:37.717Z,99255.00
2019-05-09T18:10:10.128Z,99255.00
2019-05-09T18:12:41.007Z,99260.00
2019-05-09T18:15:12.365Z,99253.00
2019-05-09T18:17:43.119Z,99265.00
2019-05-09T18:20:14.167Z,99264.00
2019-05-09T18:22:44.669Z,99275.00
2019-05-09T18:25:15.634Z,99269.00
2019-05-09T18:27:48.704Z,99273.00
2019-05-09T18:30:19.951Z,99278.00
2019-05-09T18:33:03.062Z,99282.00
2019-05-09T18:35:33.947Z,99283.00
2019-05-09T18:38:05.380Z,99282.00
2019-05-09T18:40:35.999Z,99276.00
2019-05-09T18:43:07.700Z,99289.00
2019-05-09T18:45:38.331Z,99289.00
2019-05-09T18:48:08.952Z,99286.00
2019-05-09T18:50:39.437Z,99294.00
2019-05-09T18:53:09.783Z,99288.00
2019-05-09T18:55:40.528Z,99289.00
2019-05-09T18:58:10.823Z,99294.00
2019-05-09T19:00:41.172Z,99288.00
2019-05-09T19:03:11.793Z,99305.00
2019-05-09T19:05:42.089Z,99293.00
2019-05-09T19:08:12.412Z,99300.00
2019-05-09T19:10:42.705Z,99310.00
2019-05-09T19:13:13.229Z,99298.00
2019-05-09T19:16:00.994Z,99295.00
2019-05-09T19:18:50.270Z,99304.00
2019-05-09T19:21:24.366Z,99305.00
2019-05-09T19:23:54.672Z,99313.00
2019-05-09T19:26:37.088Z,99314.00
2019-05-09T19:29:09.087Z,99317.00
2019-05-09T19:31:39.835Z,99326.00
2019-05-09T19:34:10.168Z,99330.00
2019-05-09T19:36:40.527Z,99329.00
2019-05-09T19:39:11.441Z,99334.00
2019-05-09T19:41:41.846Z,99337.00
2019-05-09T19:44:12.157Z,99336.00
2019-05-09T19:46:42.503Z,99344.00
2019-05-09T19:49:12.920Z,99336.00
2019-05-09T19:51:43.382Z,99339.00
2019-05-09T19:54:13.886Z,99343.00
2019-05-09T19:56:44.523Z,99355.00
2019-05-09T19:59:15.084Z,99349.00
2019-05-09T20:01:45.581Z,99350.00
2019-05-09T20:04:29.033Z,99360.00
2019-05-09T20:06:59.441Z,99355.00
2019-05-09T20:09:36.563Z,99352.00
2019-05-09T20:12:24.395Z,99360.00
2019-05-09T20:14:54.885Z,99366.00
2019-05-09T20:17:25.506Z,99376.00
2019-05-09T20:19:55.933Z,99375.00
2019-05-09T20:22:26.316Z,99373.00
2019-05-09T20:24:56.681Z,99380.00
2019-05-09T20:27:27.162Z,99380.00
2019-05-09T20:29:57.579Z,99393.00
2019-05-09T20:32:28.013Z,99390.00
2019-05-09T20:34:58.669Z,99393.00
2019-05-09T20:37:29.276Z,99392.00
2019-05-09T20:39:59.909Z,99403.00
2019-05-09T20:42:30.467Z,99409.00
2019-05-09T20:45:01.316Z,99414.00
2019-05-09T20:47:32.059Z,99412.00
2019-05-09T20:50:02.696Z,99411.00
2019-05-09T20:52:33.399Z,99404.00
2019-05-09T20:55:04.184Z,99410.00
2019-05-09T20:57:34.796Z,99410.00
2019-05-09T21:00:05.774Z,99420.00
2019-05-09T21:02:36.478Z,99419.00
2019-05-09T21:05:07.246Z,99424.00
2019-05-09T21:07:37.913Z,99410.00
2019-05-09T21:10:08.792Z,99419.00
2019-05-09T21:12:39.436Z,99423.00
2019-05-09T21:15:10.549Z,99430.00
2019-05-09T21:17:41.196Z,99429.00
2019-05-09T21:20:11.801Z,99421.00
2019-05-09T21:22:42.497Z,99428.00
2019-05-09T21:25:13.065Z,99429.00
2019-05-09T21:27:43.715Z,99438.00
2019-05-09T21:30:14.790Z,99433.00
2019-05-09T21:32:45.431Z,99437.00
2019-05-09T21:35:15.877Z,99442.00
2019-05-09T21:37:46.264Z,99437.00
2019-05-09T21:40:18.287Z,99441.00
2019-05-09T21:42:48.666Z,99450.00
2019-05-09T21:45:19.037Z,99456.00
2019-05-09T21:47:49.428Z,99454.00
2019-05-09T21:50:19.913Z,99450.00
2019-05-09T21:52:50.300Z,99458.00
2019-05-09T21:55:20.709Z,99451.00
2019-05-09T21:57:51.062Z,99457.00
2019-05-09T22:00:27.715Z,99454.00
2019-05-09T22:02:58.065Z,99457.00
2019-05-09T22:05:28.516Z,99462.00
2019-05-09T22:07:58.971Z,99463.00
2019-05-09T22:10:29.413Z,99462.00
2019-05-09T22:12:59.799Z,99465.00
2019-05-09T22:15:30.254Z,99473.00
2019-05-09T22:18:00.790Z,99474.00
2019-05-09T22:20:31.333Z,99471.00
2019-05-09T22:23:02.093Z,99464.00
2019-05-09T22:25:32.542Z,99468.00
2019-05-09T22:28:03.420Z,99465.00
2019-05-09T22:30:33.830Z,99468.00
2019-05-09T22:33:05.602Z,99468.00
2019-05-09T22:35:36.066Z,99480.00
2019-05-09T22:38:06.426Z,99464.00
2019-05-09T22:40:36.812Z,99477.00
2019-05-09T22:43:07.172Z,99479.00
2019-05-09T22:45:37.865Z,99484.00
2019-05-09T22:48:08.344Z,99481.00
2019-05-09T22:50:38.876Z,99482.00
2019-05-09T22:53:09.265Z,99476.00
2019-05-09T22:55:39.632Z,99478.00
2019-05-09T22:58:09.917Z,99490.00
2019-05-09T23:00:40.411Z,99489.00
2019-05-09T23:03:10.735Z,99494.00
2019-05-09T23:05:41.317Z,99493.00
2019-05-09T23:08:11.648Z,99488.00
2019-05-09T23:10:42.124Z,99489.00
2019-05-09T23:13:12.490Z,99481.00
2019-05-09T23:15:42.881Z,99483.00
2019-05-09T23:18:13.293Z,99479.00
2019-05-09T23:20:48.545Z,99493.00
2019-05-09T23:23:29.539Z,99481.00
2019-05-09T23:25:59.895Z,99477.00
2019-05-09T23:28:30.331Z,99483.00
2019-05-09T23:31:02.877Z,99481.00
2019-05-09T23:33:36.878Z,99478.00
2019-05-09T23:36:07.206Z,99482.00
2019-05-09T23:38:56.467Z,99481.00
2019-05-09T23:41:36.037Z,99478.00
2019-05-09T23:44:06.407Z,99472.00
2019-05-09T23:46:36.813Z,99480.00
2019-05-09T23:49:09.485Z,99479.00
2019-05-09T23:51:46.136Z,99477.00
2019-05-09T23:54:47.181Z,99481.00
2019-05-09T23:57:28.556Z,99484.00
